Terminal Aerodrome Forecast
Issued by NWS

Home | Current Version | Previous Version | Text Only | Print | Product List | Glossary Off
Versions: 1 2 3 4 5 6 7 8 9 10 11 12 13 14 15 16 17 18 19 20 21

000
FTUS43 KABR 260500
TAFATY
TAF
KATY 260523Z 2606/2706 36012KT 2SM -SN BR OVC035
     FM260900 36011KT 4SM BR OVC035
     FM261200 36012KT P6SM OVC025
     FM262000 35015KT P6SM OVC035
     FM270500 34008KT P6SM OVC060=

USA.gov is the U.S. government's official web portal to all federal, state and local government web resources and services.